Forside
METAR-TAF:

METAR-TAF

Lufthavne :

Litchfield Municipal Airport

Litchfield, Illinois, USA

Breddekreds: 39-09-44N, længdekreds: 089-40-28W, højde: 210 m

Aktuelle vejr

Denne rapport blev lavet for 21 minutter siden, kl. 22:15 UTC
Vind 3 kt fra nordnordøst
Temperatur 3°C
Fugtighed 81%
Tryk 1020 hPa
Sigt: 16.1 km
skyfri

METAR: K3LF 162215Z AUTO 02003KT 10SM CLR 03/00 A3012 RMK AO2 T00270003

Tid: 16:36 (22:36 UTC)


TAF: fraværende

Vejrobservationer og prognoser fra mere end 4000 lufthavne (METAR og TAF).

De gule og røde prikker repræsenterer de meteorologiske stationer.

Flyt musen over at se navnet på stationen.

Så klik over at se vejr observationer og prognoser.

At skifte det kort: Klik på de grønne knapper med et sort kors for at zoome ind; på den grønne knap med en bindestreg for at zoome ud; eller på de grønne pile for tilstødende kort.


METAR-TAF: